createdAt,value
2022-08-07T00:03:11.994Z,3.27
2022-08-07T00:08:16.502Z,2.00
2022-08-07T00:13:23.881Z,3.20
2022-08-07T00:18:29.718Z,4.70
2022-08-07T00:23:34.043Z,5.70
2022-08-07T00:28:45.759Z,6.53
2022-08-07T00:33:57.850Z,4.43
2022-08-07T00:39:00.721Z,8.67
2022-08-07T00:44:03.676Z,8.53
2022-08-07T00:49:06.288Z,5.90
2022-08-07T00:54:12.261Z,6.33
2022-08-07T00:59:16.240Z,6.13
2022-08-07T01:04:21.788Z,8.50
2022-08-07T01:10:04.905Z,4.40
2022-08-07T01:14:50.426Z,1.77
2022-08-07T01:20:10.538Z,5.67
2022-08-07T01:25:53.500Z,4.30
2022-08-07T01:30:44.634Z,5.00
2022-08-07T01:35:53.828Z,1.80
2022-08-07T01:41:04.201Z,8.07
2022-08-07T01:46:12.145Z,4.27
2022-08-07T01:51:58.631Z,3.53
2022-08-07T01:56:56.458Z,3.97
2022-08-07T02:02:07.208Z,5.37
2022-08-07T02:07:15.240Z,3.97
2022-08-07T02:12:22.214Z,2.30
2022-08-07T02:17:36.104Z,2.07
2022-08-07T02:22:43.669Z,2.73
2022-08-07T02:27:52.317Z,3.20
2022-08-07T02:33:00.972Z,3.53
2022-08-07T02:38:14.155Z,5.73
2022-08-07T02:43:19.126Z,2.30
2022-08-07T02:48:22.544Z,3.57
2022-08-07T02:53:34.103Z,3.33
2022-08-07T02:58:47.023Z,4.70
2022-08-07T03:03:52.098Z,6.37
2022-08-07T03:09:05.566Z,4.10
2022-08-07T03:14:09.278Z,6.00
2022-08-07T03:19:14.168Z,1.73
2022-08-07T03:24:19.246Z,4.33
2022-08-07T03:29:38.625Z,2.77
2022-08-07T03:35:01.134Z,5.33
2022-08-07T03:40:15.494Z,6.50
2022-08-07T03:45:30.598Z,4.13
2022-08-07T03:50:43.104Z,6.23
2022-08-07T03:56:04.430Z,3.80
2022-08-07T04:01:13.898Z,6.30
2022-08-07T04:06:37.099Z,2.60
2022-08-07T04:12:25.244Z,2.67
2022-08-07T04:17:21.281Z,4.10
2022-08-07T04:22:29.146Z,5.57
2022-08-07T04:27:44.259Z,3.57
2022-08-07T04:32:58.069Z,2.10
2022-08-07T04:38:07.762Z,3.57
2022-08-07T04:43:19.437Z,4.50
2022-08-07T04:48:52.880Z,4.40
2022-08-07T04:54:17.963Z,4.27
2022-08-07T05:00:10.782Z,4.20
2022-08-07T05:05:52.982Z,3.67
2022-08-07T05:11:19.346Z,3.40
2022-08-07T05:16:24.284Z,5.03
2022-08-07T05:21:59.445Z,4.50
2022-08-07T05:26:57.314Z,3.47
2022-08-07T05:32:03.437Z,3.93
2022-08-07T05:37:08.641Z,4.00
2022-08-07T05:42:34.550Z,3.53
2022-08-07T05:48:01.539Z,5.10
2022-08-07T05:53:06.866Z,1.97
2022-08-07T05:58:36.389Z,2.40
2022-08-07T06:03:57.042Z,4.40
2022-08-07T06:09:06.206Z,3.07
2022-08-07T06:14:21.458Z,1.83
2022-08-07T06:19:52.412Z,2.43
2022-08-07T06:25:01.390Z,3.80
2022-08-07T06:30:06.320Z,2.40
2022-08-07T06:35:38.887Z,3.17
2022-08-07T06:40:52.998Z,2.93
2022-08-07T06:46:00.816Z,5.73
2022-08-07T06:51:09.479Z,3.33
2022-08-07T06:56:15.947Z,4.03
2022-08-07T07:01:22.275Z,4.57
2022-08-07T07:06:26.774Z,2.70
2022-08-07T07:12:08.960Z,2.37
2022-08-07T07:16:58.756Z,4.50
2022-08-07T07:22:11.976Z,3.00
2022-08-07T07:27:35.767Z,4.63
2022-08-07T07:32:55.331Z,3.97
2022-08-07T07:38:02.423Z,4.97
2022-08-07T07:43:14.995Z,3.43
2022-08-07T07:48:35.223Z,2.10
2022-08-07T07:53:52.222Z,2.40
2022-08-07T07:58:57.556Z,4.23
2022-08-07T08:04:10.736Z,3.97
2022-08-07T08:09:16.876Z,4.23
2022-08-07T08:14:26.275Z,3.70
2022-08-07T08:20:19.384Z,4.37
2022-08-07T08:25:24.699Z,2.80
2022-08-07T08:30:42.633Z,1.67
2022-08-07T08:35:56.031Z,2.93
2022-08-07T08:41:08.377Z,2.53
2022-08-07T08:46:38.236Z,2.47
2022-08-07T08:52:13.909Z,5.93
2022-08-07T08:57:30.384Z,5.03
2022-08-07T09:02:39.350Z,2.80
2022-08-07T09:08:11.529Z,2.60
2022-08-07T09:13:36.928Z,3.73
2022-08-07T09:18:52.991Z,1.93
2022-08-07T09:24:32.668Z,2.20
2022-08-07T09:30:05.815Z,4.17
2022-08-07T09:36:00.843Z,2.70
2022-08-07T09:41:17.826Z,2.87
2022-08-07T09:47:55.118Z,2.57
2022-08-07T09:52:33.553Z,2.33
2022-08-07T09:58:12.408Z,2.47
2022-08-07T10:04:03.336Z,2.00
2022-08-07T10:09:11.379Z,1.93
2022-08-07T10:14:43.259Z,2.70
2022-08-07T10:20:21.847Z,2.50
2022-08-07T10:25:48.062Z,4.33
2022-08-07T10:31:31.472Z,1.27
2022-08-07T10:37:12.694Z,3.17
2022-08-07T10:42:21.295Z,1.20
2022-08-07T10:47:53.279Z,2.97
2022-08-07T10:53:12.885Z,2.90
2022-08-07T10:59:01.296Z,1.50
2022-08-07T11:04:34.508Z,4.70
2022-08-07T11:10:08.995Z,2.90
2022-08-07T11:15:18.102Z,3.13
2022-08-07T11:20:35.623Z,2.77
2022-08-07T11:25:50.023Z,2.37
2022-08-07T11:31:13.300Z,2.60
2022-08-07T11:36:38.291Z,2.17
2022-08-07T11:42:01.824Z,2.07
2022-08-07T11:48:05.984Z,3.20
2022-08-07T11:53:37.105Z,6.10
2022-08-07T11:58:57.093Z,2.93
2022-08-07T12:04:41.602Z,3.07
2022-08-07T12:09:55.436Z,2.73
2022-08-07T12:15:08.153Z,1.53
2022-08-07T12:20:30.683Z,1.50
2022-08-07T12:26:03.310Z,1.60
2022-08-07T12:31:27.110Z,1.73
2022-08-07T12:36:52.166Z,1.87
2022-08-07T12:41:55.599Z,1.67
2022-08-07T12:47:21.806Z,2.85
2022-08-07T12:52:57.029Z,2.05
2022-08-07T12:58:02.613Z,1.13
2022-08-07T13:04:02.240Z,2.25
2022-08-07T13:10:20.026Z,2.83
2022-08-07T13:15:04.060Z,4.53
2022-08-07T13:20:18.974Z,1.20
2022-08-07T13:25:35.177Z,1.60
2022-08-07T13:30:48.687Z,1.27
2022-08-07T13:36:01.337Z,2.87
2022-08-07T13:41:29.271Z,3.50
2022-08-07T13:46:38.822Z,1.95
2022-08-07T13:52:25.920Z,1.42
2022-08-07T13:57:22.441Z,4.85
2022-08-07T14:02:39.593Z,1.48
2022-08-07T14:07:59.710Z,3.20
2022-08-07T14:13:05.831Z,4.13
2022-08-07T14:18:29.251Z,1.98
2022-08-07T14:24:00.004Z,2.22
2022-08-07T14:29:05.979Z,1.73
2022-08-07T14:34:20.355Z,2.17
2022-08-07T14:40:17.892Z,1.75
2022-08-07T14:44:53.710Z,1.27
2022-08-07T14:49:59.373Z,1.40
2022-08-07T14:55:03.970Z,1.98
2022-08-07T15:00:09.138Z,2.10
2022-08-07T15:05:25.599Z,2.30
2022-08-07T15:10:30.052Z,5.85
2022-08-07T15:15:56.876Z,1.70
2022-08-07T15:21:08.219Z,1.15
2022-08-07T15:26:20.848Z,1.27
2022-08-07T15:37:03.231Z,1.73
2022-08-07T15:42:43.839Z,2.15
2022-08-07T15:48:01.920Z,1.20
2022-08-07T15:53:11.559Z,2.40
2022-08-07T15:58:20.778Z,2.65
2022-08-07T16:03:47.143Z,2.47
2022-08-07T16:08:51.791Z,1.67
2022-08-07T16:14:03.128Z,1.27
2022-08-07T16:19:42.692Z,2.13
2022-08-07T16:24:59.701Z,4.00
2022-08-07T16:30:31.667Z,1.87
2022-08-07T16:35:51.971Z,1.87
2022-08-07T16:41:54.070Z,1.47
2022-08-07T16:47:17.865Z,1.20
2022-08-07T16:52:51.237Z,2.67
2022-08-07T16:58:03.900Z,2.27
2022-08-07T17:03:17.825Z,3.23
2022-08-07T17:09:09.513Z,3.40
2022-08-07T17:14:18.570Z,3.47
2022-08-07T17:20:02.055Z,3.50
2022-08-07T17:25:51.106Z,3.55
2022-08-07T17:31:16.559Z,5.25
2022-08-07T17:36:29.046Z,5.72
2022-08-07T17:42:06.716Z,3.53
2022-08-07T17:47:37.965Z,6.07
2022-08-07T17:52:51.963Z,3.73
2022-08-07T17:58:08.930Z,1.80
2022-08-07T18:03:18.891Z,2.50
2022-08-07T18:09:01.046Z,2.40
2022-08-07T18:14:31.382Z,2.23
2022-08-07T18:21:04.099Z,5.80
2022-08-07T18:25:23.894Z,2.53
2022-08-07T18:30:45.410Z,4.93
2022-08-07T18:36:10.922Z,5.43
2022-08-07T18:41:44.660Z,7.80
2022-08-07T18:47:00.227Z,5.13
2022-08-07T18:52:37.823Z,11.53
2022-08-07T18:57:44.050Z,6.30
2022-08-07T19:03:37.831Z,13.90
2022-08-07T19:08:58.833Z,8.93
2022-08-07T19:14:16.887Z,11.67
2022-08-07T19:19:38.626Z,11.23
2022-08-07T19:24:48.062Z,13.50
2022-08-07T19:30:57.947Z,16.93
2022-08-07T19:35:26.838Z,12.67
2022-08-07T19:40:37.327Z,10.53
2022-08-07T19:46:05.844Z,12.00
2022-08-07T19:51:19.486Z,10.53
2022-08-07T19:57:51.734Z,14.60
2022-08-07T20:01:57.835Z,12.70
2022-08-07T20:07:01.273Z,12.43
2022-08-07T20:12:31.252Z,20.47
2022-08-07T20:17:30.855Z,15.67
2022-08-07T20:22:38.014Z,11.90
2022-08-07T20:27:46.282Z,10.93
2022-08-07T20:32:53.919Z,9.50
2022-08-07T20:37:59.735Z,7.57
2022-08-07T20:43:14.824Z,6.53
2022-08-07T20:48:29.036Z,9.47
2022-08-07T20:54:02.909Z,6.17
2022-08-07T20:59:02.799Z,9.30
2022-08-07T21:04:22.181Z,9.83
2022-08-07T21:09:52.436Z,8.07
2022-08-07T21:15:08.015Z,6.43
2022-08-07T21:20:26.571Z,6.43
2022-08-07T21:25:56.725Z,6.83
2022-08-07T21:31:15.268Z,8.47
2022-08-07T21:36:41.217Z,9.97
2022-08-07T21:42:42.758Z,12.13
2022-08-07T21:48:28.588Z,6.73
2022-08-07T21:53:46.446Z,8.87
2022-08-07T21:59:21.694Z,6.00
2022-08-07T22:04:27.551Z,6.50
2022-08-07T22:09:53.815Z,10.30
2022-08-07T22:16:39.549Z,8.43
2022-08-07T22:20:39.242Z,4.47
2022-08-07T22:26:06.154Z,5.20
2022-08-07T22:31:45.514Z,4.63
2022-08-07T22:36:53.209Z,4.20
2022-08-07T22:42:19.278Z,6.90
2022-08-07T22:48:01.555Z,6.13
2022-08-07T22:54:04.992Z,7.10
2022-08-07T22:58:54.376Z,4.30
2022-08-07T23:04:03.440Z,6.80
2022-08-07T23:10:04.866Z,5.30
2022-08-07T23:16:04.280Z,4.83
2022-08-07T23:21:02.383Z,3.97
2022-08-07T23:26:19.143Z,9.83
2022-08-07T23:34:19.695Z,5.83
2022-08-07T23:38:01.458Z,10.50
2022-08-07T23:43:25.663Z,8.20
2022-08-07T23:49:05.133Z,6.07
2022-08-07T23:54:46.160Z,8.73
